createdAt,value
2019-01-21T00:04:46.249Z,32.90
2019-01-21T00:09:38.349Z,38.33
2019-01-21T00:14:30.812Z,32.23
2019-01-21T00:19:23.144Z,33.83
2019-01-21T00:24:15.425Z,31.30
2019-01-21T00:29:08.017Z,33.73
2019-01-21T00:34:00.472Z,31.93
2019-01-21T00:38:53.061Z,28.90
2019-01-21T00:43:45.209Z,28.43
2019-01-21T00:48:37.511Z,31.10
2019-01-21T00:53:29.797Z,31.43
2019-01-21T00:58:22.081Z,27.57
2019-01-21T01:03:14.560Z,32.50
2019-01-21T01:08:07.040Z,27.77
2019-01-21T01:12:59.569Z,27.03
2019-01-21T01:17:51.733Z,25.63
2019-01-21T01:22:44.312Z,30.77
2019-01-21T01:27:36.436Z,29.57
2019-01-21T01:32:28.685Z,26.03
2019-01-21T01:37:20.936Z,27.57
2019-01-21T01:42:13.360Z,32.03
2019-01-21T01:47:05.889Z,30.23
2019-01-21T01:51:57.924Z,29.17
2019-01-21T01:56:50.484Z,26.60
2019-01-21T02:01:42.916Z,28.80
2019-01-21T02:06:35.330Z,27.50
2019-01-21T02:11:27.587Z,28.73
2019-01-21T02:16:19.948Z,28.20
2019-01-21T02:21:12.377Z,27.13
2019-01-21T02:26:05.904Z,26.27
2019-01-21T02:31:06.847Z,29.93
2019-01-21T02:36:36.667Z,26.13
2019-01-21T02:41:32.201Z,28.97
2019-01-21T02:46:45.480Z,28.90
2019-01-21T02:51:49.556Z,29.50
2019-01-21T02:56:53.704Z,27.07
2019-01-21T03:01:52.001Z,29.17
2019-01-21T03:06:52.736Z,28.13
2019-01-21T03:12:04.869Z,33.33
2019-01-21T03:17:20.707Z,31.30
2019-01-21T03:22:31.211Z,33.53
2019-01-21T03:27:56.176Z,26.97
2019-01-21T03:33:12.122Z,27.27
2019-01-21T03:38:15.829Z,25.90
2019-01-21T03:43:13.764Z,25.07
2019-01-21T03:48:16.566Z,26.20
2019-01-21T03:53:20.161Z,26.40
2019-01-21T03:58:18.362Z,24.97
2019-01-21T04:03:28.306Z,25.47
2019-01-21T04:08:56.243Z,24.63
2019-01-21T04:14:14.000Z,23.77
2019-01-21T04:19:18.118Z,25.60
2019-01-21T04:24:28.434Z,26.03
2019-01-21T04:29:38.350Z,28.10
2019-01-21T04:34:51.889Z,30.47
2019-01-21T04:39:53.077Z,28.23
2019-01-21T04:44:57.641Z,25.93
2019-01-21T04:50:07.801Z,25.67
2019-01-21T04:55:09.172Z,27.60
2019-01-21T05:00:04.506Z,25.70
2019-01-21T05:05:05.698Z,25.23
2019-01-21T05:10:09.485Z,26.27
2019-01-21T05:15:04.614Z,25.93
2019-01-21T05:20:17.881Z,27.60
2019-01-21T05:25:32.124Z,27.57
2019-01-21T05:30:30.455Z,27.77
2019-01-21T05:35:42.821Z,33.87
2019-01-21T05:40:50.053Z,32.37
2019-01-21T05:46:16.491Z,32.10
2019-01-21T05:51:34.180Z,31.93
2019-01-21T05:56:51.716Z,29.10
2019-01-21T06:02:19.999Z,28.00
2019-01-21T06:07:28.433Z,26.50
2019-01-21T06:12:35.113Z,26.77
2019-01-21T06:17:48.125Z,28.47
2019-01-21T06:22:48.958Z,27.83
2019-01-21T06:27:53.225Z,72.73
2019-01-21T06:32:48.389Z,30.53
2019-01-21T06:37:46.133Z,49.13
2019-01-21T06:42:57.700Z,48.17
2019-01-21T06:48:22.633Z,58.03
2019-01-21T06:53:32.806Z,58.80
2019-01-21T06:58:59.116Z,82.53
2019-01-21T07:03:56.782Z,40.37
2019-01-21T07:08:52.032Z,51.77
2019-01-21T07:14:15.568Z,42.57
2019-01-21T07:19:13.549Z,34.63
2019-01-21T07:24:17.750Z,41.27
2019-01-21T07:29:31.932Z,33.60
2019-01-21T07:34:30.024Z,37.20
2019-01-21T07:39:33.949Z,35.60
2019-01-21T07:44:43.624Z,35.10
2019-01-21T07:49:53.641Z,32.33
2019-01-21T07:54:48.956Z,32.43
2019-01-21T07:59:56.162Z,34.00
2019-01-21T08:04:54.044Z,33.90
2019-01-21T08:10:05.562Z,33.33
2019-01-21T08:15:03.369Z,38.23
2019-01-21T08:20:22.474Z,35.80
2019-01-21T08:25:26.660Z,37.23
2019-01-21T08:30:27.173Z,37.10
2019-01-21T08:35:31.524Z,32.83
2019-01-21T08:40:35.197Z,31.47
2019-01-21T08:45:36.613Z,29.67
2019-01-21T08:50:55.769Z,30.23
2019-01-21T08:55:50.919Z,32.17
2019-01-21T09:00:54.601Z,35.47
2019-01-21T09:05:52.914Z,31.57
2019-01-21T09:10:59.517Z,33.93
2019-01-21T09:15:57.881Z,33.67
2019-01-21T09:21:20.246Z,27.80
2019-01-21T09:26:31.129Z,27.57
2019-01-21T09:31:32.157Z,27.23
2019-01-21T09:36:45.569Z,26.03
2019-01-21T09:41:43.674Z,24.47
2019-01-21T09:46:43.754Z,23.37
2019-01-21T09:51:37.705Z,23.37
2019-01-21T09:56:31.386Z,23.40
2019-01-21T10:01:25.133Z,22.30
2019-01-21T10:06:20.605Z,23.07
2019-01-21T10:11:46.356Z,22.00
2019-01-21T10:16:44.408Z,22.83
2019-01-21T10:21:56.244Z,22.87
2019-01-21T10:27:12.283Z,21.93
2019-01-21T10:32:29.270Z,21.53
2019-01-21T10:37:25.076Z,20.30
2019-01-21T10:42:41.801Z,21.50
2019-01-21T10:47:37.325Z,21.27
2019-01-21T10:52:52.570Z,23.63
2019-01-21T10:57:50.453Z,24.10
2019-01-21T11:02:58.137Z,23.83
2019-01-21T11:08:02.757Z,24.30
2019-01-21T11:13:10.300Z,22.53
2019-01-21T11:18:17.685Z,20.77
2019-01-21T11:23:13.145Z,21.70
2019-01-21T11:28:17.673Z,21.10
2019-01-21T11:33:42.124Z,22.27
2019-01-21T11:38:37.718Z,23.40
2019-01-21T11:43:44.957Z,22.13
2019-01-21T11:48:49.649Z,23.60
2019-01-21T11:53:54.351Z,23.63
2019-01-21T11:58:58.585Z,24.80
2019-01-21T12:04:03.265Z,26.13
2019-01-21T12:09:01.510Z,22.60
2019-01-21T12:14:20.033Z,27.53
2019-01-21T12:19:41.219Z,21.90
2019-01-21T12:24:34.870Z,22.57
2019-01-21T12:29:46.509Z,23.27
2019-01-21T12:34:45.231Z,23.23
2019-01-21T12:39:49.553Z,23.50
2019-01-21T12:45:09.710Z,23.93
2019-01-21T12:50:24.150Z,23.87
2019-01-21T12:55:22.201Z,25.20
2019-01-21T13:00:35.450Z,25.00
2019-01-21T13:05:57.368Z,25.23
2019-01-21T13:11:01.648Z,23.73
2019-01-21T13:16:15.339Z,24.93
2019-01-21T13:21:34.589Z,23.77
2019-01-21T13:26:40.647Z,24.23
2019-01-21T13:31:54.373Z,24.13
2019-01-21T13:36:52.415Z,25.57
2019-01-21T13:41:50.832Z,24.90
2019-01-21T13:47:07.703Z,25.73
2019-01-21T13:52:08.982Z,23.97
2019-01-21T13:57:16.503Z,24.37
2019-01-21T14:02:14.832Z,26.37
2019-01-21T14:07:25.101Z,26.03
2019-01-21T14:12:39.124Z,25.17
2019-01-21T14:17:37.125Z,24.47
2019-01-21T14:22:41.290Z,24.40
2019-01-21T14:27:42.668Z,24.97
2019-01-21T14:32:38.050Z,25.00
2019-01-21T14:37:51.538Z,24.97
2019-01-21T14:42:49.760Z,27.33
2019-01-21T14:48:07.817Z,25.20
2019-01-21T14:53:18.330Z,24.90
2019-01-21T14:58:13.765Z,23.97
2019-01-21T15:03:14.695Z,26.47
2019-01-21T15:08:10.293Z,24.83
2019-01-21T15:13:23.982Z,29.17
2019-01-21T15:18:33.980Z,28.90
2019-01-21T15:23:41.612Z,31.40
2019-01-21T15:28:39.846Z,28.73
2019-01-21T15:33:59.007Z,24.83
2019-01-21T15:39:15.517Z,49.47
2019-01-21T15:44:38.148Z,43.53
2019-01-21T15:49:43.995Z,32.77
2019-01-21T15:54:55.636Z,46.03
2019-01-21T16:00:07.913Z,37.33
2019-01-21T16:05:12.392Z,41.97
2019-01-21T16:10:24.770Z,29.07
2019-01-21T16:15:20.653Z,33.83
2019-01-21T16:20:16.056Z,26.77
2019-01-21T16:25:14.266Z,33.97
2019-01-21T16:30:27.527Z,29.00
2019-01-21T16:35:25.925Z,38.83
2019-01-21T16:40:41.004Z,28.07
2019-01-21T16:45:33.688Z,27.10
2019-01-21T16:50:26.460Z,27.07
2019-01-21T16:55:19.177Z,35.53
2019-01-21T17:00:13.809Z,26.70
2019-01-21T17:05:09.112Z,34.70
2019-01-21T17:10:01.837Z,33.00
2019-01-21T17:14:57.649Z,31.03
2019-01-21T17:19:48.718Z,60.07
2019-01-21T17:24:41.080Z,50.40
2019-01-21T17:29:33.672Z,30.90
2019-01-21T17:34:26.457Z,36.47
2019-01-21T17:39:19.081Z,28.90
2019-01-21T17:44:11.856Z,35.03
2019-01-21T17:49:04.901Z,61.73
2019-01-21T17:53:57.689Z,31.63
2019-01-21T17:58:50.206Z,34.90
2019-01-21T18:03:42.696Z,31.07
2019-01-21T18:08:35.562Z,36.60
2019-01-21T18:13:28.020Z,37.67
2019-01-21T18:18:20.341Z,31.50
2019-01-21T18:23:12.582Z,28.50
2019-01-21T18:28:05.037Z,30.43
2019-01-21T18:32:57.481Z,29.47
2019-01-21T18:37:50.102Z,32.50
2019-01-21T18:42:42.807Z,37.43
2019-01-21T18:47:35.496Z,38.40
2019-01-21T18:52:28.050Z,37.13
2019-01-21T18:57:20.669Z,32.57
2019-01-21T19:02:13.332Z,34.33
2019-01-21T19:07:05.716Z,35.77
2019-01-21T19:11:58.356Z,34.33
2019-01-21T19:16:51.216Z,37.20
2019-01-21T19:21:43.904Z,38.87
2019-01-21T19:26:36.165Z,35.67
2019-01-21T19:31:28.805Z,36.40
2019-01-21T19:36:21.463Z,35.23
2019-01-21T19:41:13.603Z,37.50
2019-01-21T19:46:05.970Z,33.27
2019-01-21T19:50:58.422Z,33.63
2019-01-21T19:55:50.898Z,33.90
2019-01-21T20:00:43.269Z,34.40
2019-01-21T20:05:35.905Z,34.83
2019-01-21T20:10:28.771Z,42.57
2019-01-21T20:15:21.165Z,38.23
2019-01-21T20:20:16.794Z,46.17
2019-01-21T20:25:11.299Z,40.30
2019-01-21T20:30:04.962Z,34.13
2019-01-21T20:34:57.236Z,35.53
2019-01-21T20:39:49.982Z,34.93
2019-01-21T20:44:42.420Z,31.90
2019-01-21T20:49:34.822Z,30.30
2019-01-21T20:54:27.964Z,31.17
2019-01-21T20:59:20.523Z,29.27
2019-01-21T21:04:13.161Z,32.87
2019-01-21T21:09:08.249Z,31.93
2019-01-21T21:14:00.735Z,33.13
2019-01-21T21:18:53.222Z,33.83
2019-01-21T21:23:45.879Z,32.27
2019-01-21T21:28:38.983Z,30.60
2019-01-21T21:33:31.338Z,33.83
2019-01-21T21:38:23.804Z,33.83
2019-01-21T21:43:16.757Z,36.63
2019-01-21T21:48:09.029Z,35.43
2019-01-21T21:53:01.663Z,39.67
2019-01-21T21:57:54.300Z,38.93
2019-01-21T22:02:46.981Z,38.20
2019-01-21T22:07:39.441Z,38.23
2019-01-21T22:12:32.018Z,40.17
2019-01-21T22:17:24.349Z,40.23
2019-01-21T22:22:16.607Z,35.03
2019-01-21T22:27:09.140Z,33.23
2019-01-21T22:32:01.692Z,34.73
2019-01-21T22:36:54.206Z,34.90
2019-01-21T22:41:46.912Z,34.13
2019-01-21T22:46:39.698Z,31.07
2019-01-21T22:51:32.180Z,31.17
2019-01-21T22:56:24.620Z,33.30
2019-01-21T23:01:20.859Z,30.73
2019-01-21T23:06:13.536Z,29.37
2019-01-21T23:11:05.977Z,29.40
2019-01-21T23:15:58.630Z,29.37
2019-01-21T23:20:51.096Z,27.10
2019-01-21T23:25:43.993Z,29.13
2019-01-21T23:30:36.257Z,28.47
2019-01-21T23:35:28.956Z,27.40
2019-01-21T23:40:21.472Z,29.97
2019-01-21T23:45:14.251Z,30.40
2019-01-21T23:50:09.569Z,28.17
2019-01-21T23:55:02.472Z,27.93
2019-01-21T23:59:55.145Z,29.87
